Pagina principale
METAR-TAF:

METAR-TAF

Aeroporti :

Aeroporto Internazionale di Khartum

Khartum, Sudan

latitudine: 15-36N, longitudine: 032-33E, altezza: 382 m

Osservazione

Il bollettino è stato emesso 47 minuti fa, alle 22:00 UTC
Vento 15 kt da nord
Temperature 35°C
Umidità 10%
Pressione 1007 hPa
Visibilità 10 km o più
nessuna nube inferiore a 1500 m e nessun cumulonembo

METAR: HSSS 292200Z 35015KT CAVOK 35/M01 Q1007 NOSIG

Ora: 00:47 (22:47 UTC)

Previsione

Il bollettino è stato emesso 5 ore e 47 minuti fa, alle 17:00 UTC
Previsione valida dal 29 alle 18 UTC al 30 alle 24 UTC
Vento 6 kt da nord/nord-ovest con raffiche fino a 16 kt
Visibilità 10 km o più
nessuna nube inferiore a 1500 m e nessun cumulonembo

TAF: HSSS 291700Z 2918/3024 33006G16KT CAVOK

Osservazioni e previsioni meteorologiche di più di 4000 aeroporti (messaggi METAR e TAF).

Le stazioni disponibili sono rappresentate dai dischi gialli e rossi sulla carta.

Puntare il mouse per vedere il nome della stazione.

Clicca sopra per visualizzare le osservazioni e previsioni meteorologiche.

Per cambiare la mappa : fare clic sui pulsanti verdi con una croce nera per ingrandire, il pulsante verde con un trattino per diminuire, o sulla freccia verde per le mappe adiacenti.


METAR-TAF: